Terminal Aerodrome Forecast
Issued by NWS

Home | Current Version | Previous Version | Graphics & Text | Print | Product List | Glossary On
Versions: 1 2 3 4 5 6 7 8 9 10 11 12 13 14 15 16 17 18 19 20 21 22 23
000
FTUS43 KBIS 161124
TAFJMS
TAF
KJMS 161124Z 1612/1712 15006KT 6SM BR OVC005
     FM161400 34005KT P6SM OVC005
     FM161600 35007KT P6SM OVC008
     FM161900 35009KT P6SM OVC020
     FM162100 36009KT P6SM BKN045
     FM170200 36005KT P6SM SCT200=

USA.gov is the U.S. government's official web portal to all federal, state and local government web resources and services.